Time;durP1;ratioP1;P1;durP2;ratioP2;P2;SDS_P1;SDS_P2;PMS_P1;PMS_P2;Temp;Humidity;BMP_temperature;BMP_pressure;BME280_temperature;BME280_humidity;BME280_pressure;Samples;Min_cycle;Max_cycle;Signal;HPM_P1;HPM_P2
2022/08/29 00:01:07;;;;;;;14.07;13.30;;;21.40;30.10;;;;;;5057322;28;20211;-55
2022/08/29 00:03:35;;;;;;;12.33;11.73;;;21.40;30.00;;;;;;5057353;28;20258;-56
2022/08/29 00:06:01;;;;;;;13.43;12.73;;;21.30;30.10;;;;;;5057214;28;20541;-56
2022/08/29 00:08:27;;;;;;;14.17;13.10;;;21.30;30.30;;;;;;5057031;28;20417;-56
2022/08/29 00:10:54;;;;;;;15.33;14.27;;;21.30;30.60;;;;;;5057148;28;20478;-56
2022/08/29 00:13:20;;;;;;;15.33;14.40;;;21.40;31.10;;;;;;5057127;28;20210;-56
2022/08/29 00:15:45;;;;;;;14.93;13.87;;;21.30;31.00;;;;;;5056953;28;20444;-53
2022/08/29 00:18:13;;;;;;;13.87;13.13;;;21.40;31.30;;;;;;5056994;28;20417;-56
2022/08/29 00:20:39;;;;;;;15.93;14.37;;;21.40;31.80;;;;;;5056915;28;20274;-56
2022/08/29 00:23:05;;;;;;;15.37;14.47;;;21.30;32.20;;;;;;5056901;28;20425;-53
2022/08/29 00:25:31;;;;;;;14.00;13.30;;;21.30;32.60;;;;;;5056894;28;20499;-53
2022/08/29 00:27:57;;;;;;;14.50;13.73;;;21.30;31.00;;;;;;5056850;28;20484;-55
2022/08/29 00:30:23;;;;;;;14.30;13.50;;;21.20;30.90;;;;;;5056934;28;20172;-54
2022/08/29 00:32:50;;;;;;;13.90;13.20;;;21.20;30.90;;;;;;5057023;28;20218;-55
2022/08/29 00:35:23;;;;;;;14.50;13.60;;;21.20;30.90;;;;;;5056893;28;20532;-53
2022/08/29 00:37:50;;;;;;;13.77;13.07;;;21.20;30.90;;;;;;5056695;28;20414;-51
2022/08/29 00:40:20;;;;;;;14.43;13.63;;;21.20;30.90;;;;;;5056421;28;20452;-52
2022/08/29 00:42:46;;;;;;;14.50;13.80;;;21.20;30.90;;;;;;5056645;28;20453;-42
2022/08/29 00:45:14;;;;;;;14.40;13.60;;;21.20;30.90;;;;;;5056494;28;20465;-42
2022/08/29 00:47:46;;;;;;;13.70;13.10;;;21.20;30.90;;;;;;5056550;28;20405;-42
2022/08/29 00:50:28;;;;;;;13.50;12.80;;;21.20;30.90;;;;;;5056639;28;20486;-42
2022/08/29 00:52:56;;;;;;;14.27;13.57;;;21.10;30.80;;;;;;5056354;28;20473;-43
2022/08/29 00:55:25;;;;;;;15.47;14.50;;;21.10;30.80;;;;;;5056475;28;20429;-46
2022/08/29 00:57:59;;;;;;;14.10;13.30;;;21.10;30.80;;;;;;5056289;28;20429;-44
2022/08/29 01:00:26;;;;;;;13.23;12.63;;;21.10;30.80;;;;;;5056107;28;20417;-50
2022/08/29 01:02:53;;;;;;;13.63;13.03;;;21.10;30.80;;;;;;5056225;28;20788;-48
2022/08/29 01:05:19;;;;;;;13.17;12.57;;;21.10;30.80;;;;;;5056116;28;20469;-47
2022/08/29 01:07:46;;;;;;;15.00;14.20;;;21.10;30.80;;;;;;5056248;28;20412;-43
2022/08/29 01:12:14;;;;;;;14.60;13.80;;;21.10;30.80;;;;;;5055895;28;20424;-49
2022/08/29 01:12:59;;;;;;;14.80;14.00;;;21.00;30.80;;;;;;5073818;28;20422;-46
2022/08/29 01:15:26;;;;;;;15.50;14.40;;;21.00;30.70;;;;;;5055870;28;20851;-45
2022/08/29 01:17:54;;;;;;;14.80;14.03;;;21.00;30.70;;;;;;5056045;28;20508;-47
2022/08/29 01:20:19;;;;;;;14.83;14.10;;;21.00;30.70;;;;;;5055672;28;20509;-55
2022/08/29 01:23:05;;;;;;;15.37;14.03;;;20.90;30.60;;;;;;5055973;28;20504;-56
2022/08/29 01:25:36;;;;;;;13.20;12.60;;;21.00;30.80;;;;;;5055253;28;20218;-56
2022/08/29 01:28:12;;;;;;;15.87;14.67;;;21.00;30.70;;;;;;5055652;28;20868;-56
2022/08/29 01:31:00;;;;;;;14.27;13.57;;;21.00;30.70;;;;;;5055597;28;20449;-55
2022/08/29 01:33:35;;;;;;;14.30;13.50;;;20.90;30.60;;;;;;5073854;28;20438;-54
2022/08/29 01:36:01;;;;;;;15.03;14.00;;;20.90;31.10;;;;;;5073512;28;20433;-55
2022/08/29 01:38:26;;;;;;;15.07;14.07;;;20.90;30.90;;;;;;5055388;28;20414;-56
2022/08/29 01:41:01;;;;;;;14.93;14.10;;;20.90;31.20;;;;;;5055716;28;20179;-50
2022/08/29 01:43:28;;;;;;;14.90;14.00;;;20.90;31.30;;;;;;5055667;28;20182;-44
2022/08/29 01:45:54;;;;;;;14.50;13.80;;;20.90;31.00;;;;;;5055327;28;20493;-46
2022/08/29 01:48:20;;;;;;;16.60;15.30;;;20.90;31.30;;;;;;5055387;28;20460;-43
2022/08/29 01:50:46;;;;;;;16.00;15.10;;;20.80;31.30;;;;;;5055194;28;20418;-53
2022/08/29 01:53:13;;;;;;;14.60;13.80;;;20.80;31.30;;;;;;5073357;28;20489;-51
2022/08/29 01:55:40;;;;;;;14.53;13.87;;;20.80;31.70;;;;;;5055206;28;20216;-53
2022/08/29 01:58:06;;;;;;;13.70;13.10;;;20.80;32.10;;;;;;5055131;28;20432;-54
2022/08/29 02:00:32;;;;;;;15.33;14.53;;;20.80;32.20;;;;;;5054956;28;20413;-54
2022/08/29 02:03:00;;;;;;;15.20;14.40;;;20.80;32.20;;;;;;5055073;28;20520;-54
2022/08/29 02:05:27;;;;;;;15.07;14.27;;;20.80;32.00;;;;;;5054982;28;20464;-54
2022/08/29 02:11:16;;;;;;;14.73;14.00;;;20.70;31.90;;;;;;5072331;28;20440;-56
2022/08/29 02:13:45;;;;;;;16.07;15.17;;;20.70;32.20;;;;;;5054864;28;20781;-57
2022/08/29 02:16:12;;;;;;;15.30;14.57;;;20.70;32.50;;;;;;5054762;28;20513;-57
2022/08/29 02:18:41;;;;;;;15.07;14.30;;;20.70;32.30;;;;;;5054621;28;20425;-58
2022/08/29 02:21:08;;;;;;;14.90;14.10;;;20.70;32.50;;;;;;5054509;28;20822;-58
2022/08/29 02:23:36;;;;;;;15.60;14.60;;;20.70;32.20;;;;;;5054629;28;20471;-56
2022/08/29 02:26:03;;;;;;;15.10;14.40;;;20.60;32.30;;;;;;5054537;28;20961;-55
2022/08/29 02:28:30;;;;;;;15.30;14.53;;;20.60;32.30;;;;;;5054522;28;20421;-57
2022/08/29 02:30:56;;;;;;;15.80;14.80;;;20.60;32.20;;;;;;5054336;28;20417;-57
2022/08/29 02:33:22;;;;;;;14.40;13.80;;;20.60;32.20;;;;;;5054731;28;20475;-57
2022/08/29 02:35:47;;;;;;;15.63;14.83;;;20.60;32.10;;;;;;5054353;28;20909;-57
2022/08/29 02:38:14;;;;;;;15.17;14.37;;;20.60;32.30;;;;;;5054353;28;20479;-57
2022/08/29 02:40:41;;;;;;;15.47;14.47;;;20.50;32.70;;;;;;5054275;28;20487;-55
2022/08/29 02:43:07;;;;;;;16.00;15.03;;;20.50;32.80;;;;;;5054388;28;20420;-57
2022/08/29 02:45:36;;;;;;;15.53;14.73;;;20.50;32.90;;;;;;5054357;28;20555;-56
2022/08/29 02:48:02;;;;;;;16.57;15.47;;;20.50;33.10;;;;;;5054139;28;20546;-54
2022/08/29 02:50:28;;;;;;;15.73;14.83;;;20.50;33.10;;;;;;5054155;28;20421;-54
2022/08/29 02:52:54;;;;;;;15.70;14.73;;;20.50;33.30;;;;;;5054161;28;20497;-56
2022/08/29 02:55:22;;;;;;;15.43;14.70;;;20.50;33.20;;;;;;5054007;28;20410;-56
2022/08/29 02:57:47;;;;;;;15.17;14.40;;;20.40;32.90;;;;;;5054201;28;20190;-44
2022/08/29 03:00:18;;;;;;;16.00;15.20;;;20.40;32.40;;;;;;5054479;28;20513;-43
2022/08/29 03:02:46;;;;;;;15.47;14.47;;;20.40;32.40;;;;;;5054443;28;20180;-46
2022/08/29 03:05:13;;;;;;;16.23;15.33;;;20.40;32.50;;;;;;5054498;28;20999;-45
2022/08/29 03:07:39;;;;;;;16.67;15.83;;;20.20;33.70;;;;;;5054881;28;20750;-43
2022/08/29 03:10:06;;;;;;;17.00;16.10;;;20.20;33.40;;;;;;5054261;28;20820;-43
2022/08/29 03:12:35;;;;;;;15.83;15.07;;;20.20;33.80;;;;;;5053980;28;20492;-43
2022/08/29 03:15:01;;;;;;;15.47;14.80;;;20.20;33.10;;;;;;5053924;28;20441;-42
2022/08/29 03:17:28;;;;;;;16.63;15.73;;;20.20;32.90;;;;;;5054085;28;20807;-43
2022/08/29 03:19:53;;;;;;;16.47;15.57;;;20.30;32.80;;;;;;5053557;28;20829;-43
2022/08/29 03:22:19;;;;;;;16.07;15.17;;;20.30;32.90;;;;;;5053011;28;20496;-43
2022/08/29 03:24:45;;;;;;;15.83;14.93;;;20.30;32.90;;;;;;5053760;28;20207;-44
2022/08/29 03:27:10;;;;;;;16.47;15.57;;;20.30;32.90;;;;;;5053544;28;20187;-44
2022/08/29 03:29:37;;;;;;;15.93;15.03;;;20.20;32.90;;;;;;5053627;28;20171;-49
2022/08/29 03:32:04;;;;;;;15.10;14.40;;;20.20;32.50;;;;;;5053448;28;20186;-46
2022/08/29 03:34:30;;;;;;;14.80;14.07;;;20.20;32.60;;;;;;5054021;28;20425;-57
2022/08/29 03:36:56;;;;;;;15.60;14.63;;;20.20;32.90;;;;;;5053653;28;20426;-63
2022/08/29 03:39:22;;;;;;;16.57;15.77;;;20.20;32.80;;;;;;5053526;28;20417;-56
2022/08/29 03:41:47;;;;;;;17.63;16.10;;;20.20;32.70;;;;;;5053571;28;20427;-45
2022/08/29 03:44:13;;;;;;;16.37;15.47;;;20.20;32.80;;;;;;5053965;28;20261;-47
2022/08/29 03:46:39;;;;;;;16.40;15.53;;;20.20;32.90;;;;;;5054187;28;20607;-47
2022/08/29 03:49:08;;;;;;;16.70;15.80;;;20.20;32.60;;;;;;5053794;28;20210;-57
2022/08/29 03:51:35;;;;;;;16.43;14.90;;;20.20;32.60;;;;;;5054078;28;20182;-55
2022/08/29 03:54:01;;;;;;;16.37;15.40;;;20.20;32.60;;;;;;5054219;28;20425;-58
2022/08/29 03:56:27;;;;;;;16.50;15.40;;;20.20;32.60;;;;;;5053879;28;20414;-48
2022/08/29 03:58:54;;;;;;;15.60;14.80;;;20.20;32.90;;;;;;5053751;28;20267;-46
2022/08/29 04:01:23;;;;;;;16.10;15.20;;;20.10;32.50;;;;;;5053751;28;20447;-44
2022/08/29 04:03:49;;;;;;;17.20;16.20;;;20.10;32.50;;;;;;5053722;28;20425;-44
2022/08/29 04:06:15;;;;;;;16.13;15.43;;;20.10;32.70;;;;;;5053763;28;20500;-43
2022/08/29 04:08:42;;;;;;;17.23;16.20;;;20.10;32.90;;;;;;5053589;28;20448;-44
2022/08/29 04:11:09;;;;;;;18.03;16.83;;;20.10;33.10;;;;;;5053349;28;20230;-44
2022/08/29 04:13:35;;;;;;;16.60;15.90;;;20.00;33.10;;;;;;5052626;28;20417;-47
2022/08/29 04:16:01;;;;;;;16.60;15.80;;;20.00;33.10;;;;;;5071216;28;20425;-45
2022/08/29 04:18:26;;;;;;;16.40;15.60;;;20.10;32.90;;;;;;5053263;28;20187;-44
2022/08/29 04:21:00;;;;;;;15.37;14.57;;;20.00;32.00;;;;;;5053079;28;20534;-45
2022/08/29 04:23:26;;;;;;;16.13;15.43;;;20.00;31.60;;;;;;5053023;28;20179;-43
2022/08/29 04:25:52;;;;;;;16.53;15.63;;;19.90;31.80;;;;;;5050801;28;20833;-45
2022/08/29 04:28:17;;;;;;;17.03;16.10;;;20.00;32.00;;;;;;5045124;28;20270;-45
2022/08/29 04:30:48;;;;;;;16.37;15.57;;;19.90;32.10;;;;;;5032942;28;20546;-45
2022/08/29 04:33:14;;;;;;;16.40;15.40;;;19.90;32.10;;;;;;5035870;28;20176;-44
2022/08/29 04:35:39;;;;;;;16.83;15.87;;;19.90;32.40;;;;;;5056646;28;20455;-45
2022/08/29 04:38:05;;;;;;;16.30;15.50;;;19.90;32.20;;;;;;5050707;28;20175;-44
2022/08/29 04:40:32;;;;;;;16.50;15.30;;;19.90;32.40;;;;;;5035962;28;20180;-43
2022/08/29 04:42:58;;;;;;;17.23;16.33;;;19.90;32.20;;;;;;5035918;28;20828;-45
2022/08/29 04:45:25;;;;;;;16.40;15.70;;;19.90;32.10;;;;;;5036140;28;20489;-44
2022/08/29 04:47:51;;;;;;;17.23;16.43;;;19.80;31.70;;;;;;5043846;28;20434;-48
2022/08/29 04:50:20;;;;;;;15.80;15.00;;;19.80;31.90;;;;;;5055953;28;20494;-44
2022/08/29 04:52:46;;;;;;;15.73;14.83;;;19.80;31.90;;;;;;5056321;28;20171;-45
2022/08/29 04:55:13;;;;;;;16.27;15.37;;;19.80;31.60;;;;;;5055713;28;20424;-45
2022/08/29 04:57:39;;;;;;;15.70;14.80;;;19.80;31.50;;;;;;5053451;28;20426;-58
2022/08/29 05:00:11;;;;;;;17.53;16.37;;;19.80;31.30;;;;;;5035300;28;20426;-56
2022/08/29 05:02:38;;;;;;;15.63;14.93;;;19.80;31.30;;;;;;5035720;28;20957;-58
2022/08/29 05:05:05;;;;;;;15.60;14.70;;;19.80;31.40;;;;;;5035749;28;20829;-57
2022/08/29 05:07:31;;;;;;;16.23;15.33;;;19.80;31.20;;;;;;5035843;28;20418;-57
2022/08/29 05:10:05;;;;;;;16.13;15.23;;;19.80;31.30;;;;;;5035260;28;20426;-57
2022/08/29 05:12:32;;;;;;;17.27;16.07;;;19.80;30.90;;;;;;5036694;28;20417;-58
2022/08/29 05:14:58;;;;;;;16.43;15.40;;;19.80;30.70;;;;;;5055828;28;20440;-57
2022/08/29 05:17:24;;;;;;;16.77;15.90;;;19.80;30.60;;;;;;5055506;28;20421;-54
2022/08/29 05:19:50;;;;;;;17.23;16.03;;;19.80;30.90;;;;;;5055760;28;20777;-57
2022/08/29 05:22:18;;;;;;;17.60;16.50;;;19.80;31.10;;;;;;5055503;28;20418;-43
2022/08/29 05:24:44;;;;;;;16.77;16.07;;;19.80;31.00;;;;;;5055303;28;20824;-44
2022/08/29 05:27:12;;;;;;;16.63;15.60;;;19.80;31.00;;;;;;5055462;28;20416;-44
2022/08/29 05:29:40;;;;;;;16.37;15.60;;;19.80;30.90;;;;;;5037241;28;20204;-43
2022/08/29 05:32:07;;;;;;;17.40;16.00;;;19.80;30.80;;;;;;5035265;28;20410;-45
2022/08/29 05:34:37;;;;;;;16.07;15.17;;;19.80;31.10;;;;;;5035509;28;20446;-48
2022/08/29 05:37:06;;;;;;;16.60;15.70;;;19.80;31.00;;;;;;5035354;28;20421;-43
2022/08/29 05:39:33;;;;;;;16.80;16.10;;;19.80;30.60;;;;;;5034848;28;20458;-47
2022/08/29 05:42:00;;;;;;;16.67;15.77;;;19.80;30.80;;;;;;5035136;28;20458;-45
2022/08/29 05:44:27;;;;;;;15.93;15.13;;;19.70;30.70;;;;;;5048869;28;21000;-44
2022/08/29 05:46:53;;;;;;;17.13;16.13;;;19.70;30.80;;;;;;5055144;28;20453;-46
2022/08/29 05:49:19;;;;;;;16.43;15.73;;;19.70;31.30;;;;;;5054936;28;20460;-45
2022/08/29 05:51:45;;;;;;;18.43;17.43;;;19.70;32.10;;;;;;5054967;28;20262;-51
2022/08/29 05:54:11;;;;;;;17.33;16.40;;;19.70;32.20;;;;;;5054954;28;20517;-49
2022/08/29 05:56:36;;;;;;;17.43;16.43;;;19.70;32.40;;;;;;5054762;28;20554;-43
2022/08/29 05:59:02;;;;;;;17.73;16.50;;;19.70;32.40;;;;;;5054992;28;20179;-47
2022/08/29 06:01:31;;;;;;;16.60;15.80;;;19.80;32.20;;;;;;5048685;28;20639;-42
2022/08/29 06:03:57;;;;;;;17.17;16.27;;;19.80;32.80;;;;;;5035237;28;20209;-45
2022/08/29 06:06:25;;;;;;;18.07;16.90;;;19.80;32.70;;;;;;5051576;28;20426;-44
2022/08/29 06:08:52;;;;;;;17.50;16.70;;;19.80;32.70;;;;;;5051312;28;20426;-43
2022/08/29 06:11:23;;;;;;;19.10;17.90;;;19.80;32.70;;;;;;5052535;28;20429;-43
2022/08/29 06:13:49;;;;;;;17.73;16.70;;;19.70;33.20;;;;;;5051322;28;20407;-43
2022/08/29 06:16:19;;;;;;;16.87;16.07;;;19.70;33.60;;;;;;5034614;28;20417;-42
2022/08/29 06:18:45;;;;;;;17.93;16.93;;;19.80;33.70;;;;;;5035107;28;20267;-43
2022/08/29 06:21:11;;;;;;;18.30;17.30;;;19.90;33.30;;;;;;5035072;28;20418;-43
2022/08/29 06:23:38;;;;;;;18.17;17.10;;;19.90;33.20;;;;;;5034611;28;20430;-45
2022/08/29 06:26:05;;;;;;;17.87;16.67;;;19.90;33.40;;;;;;5034750;28;20458;-44
2022/08/29 06:28:32;;;;;;;17.37;16.43;;;19.80;33.60;;;;;;5040106;28;20976;-45
2022/08/29 06:31:27;;;;;;;17.00;15.90;;;19.70;34.60;;;;;;5034545;28;20418;-46
2022/08/29 06:33:56;;;;;;;16.50;15.57;;;19.70;34.50;;;;;;5035479;28;20422;-48
2022/08/29 06:36:24;;;;;;;17.20;16.30;;;19.90;34.40;;;;;;5053867;28;20433;-42
2022/08/29 06:38:51;;;;;;;17.13;16.17;;;19.90;33.90;;;;;;5053122;28;20449;-43
2022/08/29 06:41:17;;;;;;;18.07;16.97;;;20.00;33.60;;;;;;5054117;28;20409;-44
2022/08/29 06:43:43;;;;;;;17.87;16.87;;;20.00;33.50;;;;;;5053697;28;20512;-60
2022/08/29 06:46:29;;;;;;;18.77;17.47;;;20.00;34.30;;;;;;5070900;28;20472;-44
2022/08/29 06:48:55;;;;;;;18.77;17.17;;;20.10;34.00;;;;;;5050781;28;20436;-44
2022/08/29 06:51:21;;;;;;;16.93;16.03;;;19.90;34.80;;;;;;5033258;28;20411;-44
2022/08/29 06:53:48;;;;;;;17.50;16.50;;;19.90;34.80;;;;;;5034197;28;20773;-45
2022/08/29 06:56:14;;;;;;;19.07;17.53;;;20.00;34.80;;;;;;5033782;28;20441;-44
2022/08/29 06:58:40;;;;;;;18.33;16.93;;;20.00;34.80;;;;;;5034750;28;20520;-44
2022/08/29 07:01:11;;;;;;;18.33;17.13;;;20.00;35.00;;;;;;5033715;28;20423;-45
2022/08/29 07:03:37;;;;;;;16.90;15.90;;;19.90;35.90;;;;;;5034286;28;20758;-56
2022/08/29 07:06:03;;;;;;;20.30;18.60;;;20.00;35.90;;;;;;5033454;28;20454;-57
2022/08/29 07:08:29;;;;;;;19.90;18.43;;;19.90;35.50;;;;;;5033676;28;20417;-58
2022/08/29 07:10:55;;;;;;;19.83;18.70;;;19.80;36.10;;;;;;5033340;28;20437;-58
2022/08/29 07:13:21;;;;;;;19.50;18.40;;;19.80;36.00;;;;;;5033736;28;20415;-57
2022/08/29 07:15:46;;;;;;;19.73;18.47;;;19.90;36.10;;;;;;5033702;28;20636;-58
2022/08/29 07:18:12;;;;;;;19.50;18.30;;;20.00;36.00;;;;;;5033997;28;20663;-56
2022/08/29 07:20:38;;;;;;;18.20;17.00;;;20.10;35.50;;;;;;5043780;28;20189;-59
2022/08/29 07:23:05;;;;;;;18.83;17.73;;;20.10;35.70;;;;;;5053245;28;20172;-57
2022/08/29 07:25:31;;;;;;;19.67;17.93;;;20.20;35.60;;;;;;5052843;28;20548;-59
2022/08/29 07:27:57;;;;;;;19.87;18.57;;;20.20;35.00;;;;;;5071531;28;20890;-54
2022/08/29 07:30:23;;;;;;;19.23;17.93;;;20.20;34.90;;;;;;5052855;28;20509;-57
2022/08/29 07:32:49;;;;;;;19.40;18.00;;;20.10;35.20;;;;;;5042157;28;20208;-56
2022/08/29 07:35:16;;;;;;;19.30;18.00;;;20.20;35.30;;;;;;5033515;28;20191;-56
2022/08/29 07:37:41;;;;;;;20.30;18.93;;;20.30;35.10;;;;;;5033635;28;20513;-58
2022/08/29 07:40:13;;;;;;;19.53;18.03;;;20.40;34.90;;;;;;5033396;28;20513;-58
2022/08/29 07:42:39;;;;;;;19.83;18.40;;;20.50;34.50;;;;;;5033553;28;20176;-56
2022/08/29 07:45:10;;;;;;;19.40;18.20;;;20.60;34.50;;;;;;5046188;28;20540;-58
2022/08/29 07:47:36;;;;;;;19.30;17.60;;;20.60;34.00;;;;;;5053502;28;20406;-58
2022/08/29 07:50:04;;;;;;;18.93;17.43;;;20.60;33.40;;;;;;5053376;28;20467;-58
2022/08/29 07:52:30;;;;;;;17.20;16.20;;;20.70;33.60;;;;;;5071117;28;20410;-59
2022/08/29 07:54:56;;;;;;;17.47;16.17;;;20.70;33.70;;;;;;5053292;28;20928;-58
2022/08/29 07:57:21;;;;;;;18.30;16.97;;;20.60;34.30;;;;;;5053353;28;20586;-57
2022/08/29 07:59:47;;;;;;;16.93;15.97;;;20.70;35.00;;;;;;5053311;28;20478;-59
2022/08/29 08:02:13;;;;;;;18.60;17.60;;;20.80;33.70;;;;;;5036430;28;20659;-58
2022/08/29 08:04:39;;;;;;;17.77;16.57;;;20.90;33.40;;;;;;5033422;28;20219;-58
2022/08/29 08:07:05;;;;;;;17.90;16.80;;;21.00;33.30;;;;;;5033323;28;20184;-48
2022/08/29 08:09:31;;;;;;;19.83;18.43;;;21.00;33.40;;;;;;5037061;28;20786;-46
2022/08/29 08:11:56;;;;;;;18.00;16.90;;;21.10;33.90;;;;;;5036871;28;20176;-47
2022/08/29 08:14:22;;;;;;;18.30;17.30;;;21.10;33.90;;;;;;5042469;28;20413;-59
2022/08/29 08:16:48;;;;;;;18.00;17.00;;;21.10;32.90;;;;;;5057516;28;20263;-58
2022/08/29 08:19:14;;;;;;;17.27;16.30;;;21.10;32.50;;;;;;5057616;28;20177;-58
2022/08/29 08:21:40;;;;;;;17.70;16.20;;;21.10;32.50;;;;;;5057075;28;20187;-57
2022/08/29 08:24:06;;;;;;;17.43;16.53;;;21.20;32.80;;;;;;5057082;28;20456;-57
2022/08/29 08:26:32;;;;;;;19.07;17.87;;;21.30;32.90;;;;;;5057386;28;20417;-49
2022/08/29 08:28:58;;;;;;;18.17;16.93;;;21.40;32.40;;;;;;5053948;28;20909;-49
2022/08/29 08:31:24;;;;;;;18.30;17.13;;;21.40;32.50;;;;;;5037276;28;20218;-49
2022/08/29 08:33:50;;;;;;;18.67;17.47;;;21.40;32.00;;;;;;5037398;28;20505;-51
2022/08/29 08:36:29;;;;;;;18.77;17.47;;;21.50;32.20;;;;;;5037113;28;20930;-49
2022/08/29 08:38:56;;;;;;;18.70;17.23;;;21.60;31.20;;;;;;5037167;28;20425;-49
2022/08/29 08:41:35;;;;;;;17.03;16.03;;;21.70;31.50;;;;;;5037086;28;20406;-49
2022/08/29 08:44:11;;;;;;;17.90;16.90;;;21.70;31.60;;;;;;5032748;28;20465;-50
2022/08/29 08:46:39;;;;;;;18.60;17.50;;;21.80;31.40;;;;;;5057159;28;20466;-58
2022/08/29 08:49:22;;;;;;;19.57;18.13;;;21.90;31.50;;;;;;5056770;28;20417;-57
2022/08/29 08:51:53;;;;;;;19.10;17.80;;;21.90;30.40;;;;;;5056273;28;20401;-56
2022/08/29 08:54:28;;;;;;;17.30;16.20;;;22.00;30.00;;;;;;5052931;28;20731;-58
2022/08/29 08:57:07;;;;;;;16.90;15.90;;;22.10;29.80;;;;;;5045682;28;20430;-57
2022/08/29 08:59:42;;;;;;;17.80;16.80;;;22.30;29.60;;;;;;5046508;28;20472;-58
2022/08/29 09:02:26;;;;;;;18.27;17.17;;;22.30;29.50;;;;;;5043650;28;20463;-50
2022/08/29 09:04:55;;;;;;;18.90;17.87;;;22.30;29.40;;;;;;5044870;28;20461;-47
2022/08/29 09:07:32;;;;;;;19.33;18.03;;;22.40;29.00;;;;;;5044461;28;20418;-58
2022/08/29 09:10:29;;;;;;;19.77;17.97;;;22.40;29.10;;;;;;5045612;28;20414;-58
2022/08/29 09:13:23;;;;;;;19.10;17.70;;;22.50;29.30;;;;;;5051143;28;20472;-56
2022/08/29 09:15:52;;;;;;;16.83;15.80;;;22.70;29.10;;;;;;5062565;28;20979;-54
2022/08/29 09:18:35;;;;;;;16.53;15.67;;;22.70;27.90;;;;;;5049777;28;20424;-58
2022/08/29 09:21:04;;;;;;;17.10;16.10;;;22.80;28.40;;;;;;5050014;28;20422;-57
2022/08/29 09:23:40;;;;;;;16.67;15.67;;;23.00;28.10;;;;;;5046058;28;20418;-58
2022/08/29 09:26:06;;;;;;;17.40;16.50;;;23.20;27.80;;;;;;5054125;28;20462;-58
2022/08/29 09:28:32;;;;;;;17.70;16.80;;;23.50;26.40;;;;;;5046232;28;20915;-56
2022/08/29 09:31:25;;;;;;;18.40;16.90;;;23.70;26.00;;;;;;5052283;28;20171;-56
2022/08/29 09:33:55;;;;;;;17.23;16.23;;;23.90;25.00;;;;;;5045536;28;20183;-55
2022/08/29 09:36:35;;;;;;;16.90;15.83;;;24.00;24.70;;;;;;5059797;28;20449;-58
2022/08/29 09:39:43;;;;;;;16.80;15.60;;;24.20;24.60;;;;;;5062905;28;20555;-45
2022/08/29 09:42:12;;;;;;;18.40;17.20;;;24.30;24.60;;;;;;5063071;28;20446;-43
2022/08/29 09:44:40;;;;;;;16.40;15.43;;;24.40;23.90;;;;;;5050564;28;20508;-48
2022/08/29 09:47:10;;;;;;;16.43;14.90;;;24.50;23.80;;;;;;5045785;28;21188;-49
2022/08/29 09:49:51;;;;;;;16.80;15.70;;;24.60;24.10;;;;;;5045216;28;20797;-49
2022/08/29 09:52:24;;;;;;;16.20;15.20;;;24.70;23.10;;;;;;5040194;28;20414;-51
2022/08/29 09:54:49;;;;;;;15.70;14.80;;;24.80;23.30;;;;;;5043503;28;20410;-49
2022/08/29 09:57:23;;;;;;;16.03;15.23;;;24.90;23.20;;;;;;5055230;28;20445;-49
2022/08/29 10:00:12;;;;;;;15.90;15.10;;;25.00;22.70;;;;;;5062256;28;20187;-46
2022/08/29 10:02:41;;;;;;;17.53;16.23;;;25.10;23.10;;;;;;5048143;28;20420;-46
2022/08/29 10:05:09;;;;;;;16.50;15.50;;;25.10;22.60;;;;;;5044631;28;20513;-48
2022/08/29 10:07:52;;;;;;;16.60;15.80;;;25.20;22.00;;;;;;5045608;28;20489;-45
2022/08/29 10:10:21;;;;;;;16.10;15.30;;;25.30;22.40;;;;;;5041650;28;20425;-45
2022/08/29 10:13:28;;;;;;;16.50;15.30;;;25.20;21.70;;;;;;5043829;28;20414;-45
2022/08/29 10:16:28;;;;;;;16.33;15.53;;;25.20;21.90;;;;;;5008703;28;20426;-46
2022/08/29 10:18:59;;;;;;;16.37;15.50;;;25.30;22.10;;;;;;5049679;28;20409;-46
2022/08/29 10:22:04;;;;;;;15.23;14.23;;;25.30;20.90;;;;;;5045341;28;20409;-44
2022/08/29 10:24:45;;;;;;;15.90;14.90;;;25.40;20.50;;;;;;5047465;28;20484;-47
2022/08/29 10:27:31;;;;;;;15.07;14.17;;;25.20;20.90;;;;;;5041192;28;20460;-49
2022/08/29 10:30:15;;;;;;;14.40;13.63;;;25.20;20.40;;;;;;5051003;28;20422;-49
2022/08/29 10:33:00;;;;;;;15.43;14.20;;;25.40;19.70;;;;;;5039273;28;20510;-49
2022/08/29 10:35:39;;;;;;;17.20;16.20;;;25.50;20.20;;;;;;5001716;28;1073986;-51
2022/08/29 10:38:14;;;;;;;15.77;14.87;;;25.60;20.80;;;;;;5042656;28;20278;-50
2022/08/29 10:41:21;;;;;;;15.30;14.30;;;25.70;20.10;;;;;;5040556;28;20466;-51
2022/08/29 10:44:08;;;;;;;16.63;15.57;;;25.70;19.50;;;;;;5049272;28;20499;-51
2022/08/29 10:46:59;;;;;;;16.17;15.37;;;25.70;20.30;;;;;;5041077;28;20814;-46
2022/08/29 10:49:40;;;;;;;18.03;17.03;;;25.70;20.30;;;;;;5042646;28;20416;-48
2022/08/29 10:52:34;;;;;;;17.60;16.20;;;25.70;20.60;;;;;;5056427;28;20425;-49
2022/08/29 10:55:03;;;;;;;17.43;16.07;;;25.60;20.80;;;;;;5042804;28;20484;-47
2022/08/29 10:57:55;;;;;;;15.63;14.73;;;25.70;20.30;;;;;;5055405;28;20803;-46
2022/08/29 11:00:26;;;;;;;15.30;14.50;;;25.60;19.80;;;;;;5038502;28;20442;-45
2022/08/29 11:03:13;;;;;;;15.43;14.50;;;25.60;20.00;;;;;;5041005;28;20506;-46
2022/08/29 11:05:44;;;;;;;14.90;14.10;;;25.70;20.10;;;;;;5041434;28;20494;-47
2022/08/29 11:08:13;;;;;;;15.70;14.77;;;25.70;19.70;;;;;;5046766;28;20410;-46
2022/08/29 11:10:49;;;;;;;15.60;14.60;;;25.70;19.30;;;;;;5043114;28;20767;-48
2022/08/29 11:13:35;;;;;;;15.43;14.63;;;25.70;19.40;;;;;;5042905;28;20414;-50
2022/08/29 11:16:22;;;;;;;15.27;14.57;;;25.50;19.20;;;;;;5053472;28;20753;-46
2022/08/29 11:19:00;;;;;;;13.83;13.23;;;25.50;19.10;;;;;;5053180;28;20410;-50
2022/08/29 11:21:45;;;;;;;15.70;14.50;;;25.50;19.20;;;;;;5046610;28;20413;-48
2022/08/29 11:24:13;;;;;;;15.30;14.60;;;25.50;19.70;;;;;;5049544;28;20506;-50
2022/08/29 11:27:08;;;;;;;14.63;13.63;;;25.50;19.20;;;;;;5046649;28;20417;-45
2022/08/29 11:29:36;;;;;;;15.37;14.43;;;25.50;19.40;;;;;;5053494;28;20918;-49
2022/08/29 11:32:11;;;;;;;14.87;14.17;;;25.50;19.60;;;;;;5049976;28;20410;-48
2022/08/29 11:34:42;;;;;;;15.37;14.67;;;25.50;19.10;;;;;;5047883;28;20516;-51
2022/08/29 11:37:22;;;;;;;17.17;15.90;;;25.40;19.10;;;;;;5043941;28;20414;-47
2022/08/29 11:39:49;;;;;;;15.90;15.20;;;25.30;19.40;;;;;;5047233;28;20452;-47
2022/08/29 11:42:18;;;;;;;14.77;14.07;;;25.40;20.40;;;;;;5039539;28;20424;-48
2022/08/29 11:44:51;;;;;;;15.20;14.30;;;25.60;18.70;;;;;;5051689;28;20465;-48
2022/08/29 11:47:45;;;;;;;15.63;14.83;;;25.60;19.10;;;;;;5053353;28;20420;-47
2022/08/29 11:50:13;;;;;;;14.70;13.70;;;25.50;19.20;;;;;;5046729;28;20447;-46
2022/08/29 11:52:50;;;;;;;16.80;15.80;;;25.50;19.50;;;;;;5049051;28;20495;-50
2022/08/29 11:55:27;;;;;;;20.20;18.80;;;25.40;19.20;;;;;;5047123;28;20411;-49
2022/08/29 11:57:56;;;;;;;15.27;14.33;;;25.50;19.30;;;;;;5047133;28;20436;-49
2022/08/29 12:00:44;;;;;;;15.80;14.60;;;25.70;18.60;;;;;;5046890;28;20422;-48
2022/08/29 12:03:31;;;;;;;15.70;14.80;;;25.70;18.50;;;;;;5047882;28;20413;-46
2022/08/29 12:06:17;;;;;;;14.67;13.87;;;25.70;18.40;;;;;;5045457;28;20981;-45
2022/08/29 12:08:51;;;;;;;14.40;13.50;;;25.60;18.40;;;;;;5043172;28;20786;-47
2022/08/29 12:11:17;;;;;;;14.63;13.83;;;25.50;18.40;;;;;;5049594;28;20417;-48
2022/08/29 12:13:47;;;;;;;16.00;15.27;;;25.50;19.00;;;;;;5046636;28;20416;-45
2022/08/29 12:16:37;;;;;;;15.00;14.20;;;25.60;18.30;;;;;;5044047;28;20422;-46
2022/08/29 12:19:02;;;;;;;14.80;14.03;;;25.90;17.50;;;;;;5051440;28;20426;-49
2022/08/29 12:21:38;;;;;;;15.00;14.10;;;25.80;18.40;;;;;;5048833;28;20406;-48
2022/08/29 12:24:35;;;;;;;13.77;13.00;;;25.90;18.30;;;;;;5048154;28;20176;-48
2022/08/29 12:27:03;;;;;;;14.50;13.87;;;25.90;17.20;;;;;;5050305;28;20626;-51
2022/08/29 12:29:41;;;;;;;15.40;14.30;;;26.00;17.30;;;;;;5050366;28;20417;-51
2022/08/29 12:32:15;;;;;;;13.97;13.20;;;25.90;17.10;;;;;;5049670;28;20417;-47
2022/08/29 12:34:50;;;;;;;14.13;13.40;;;25.90;18.10;;;;;;5050537;28;20503;-47
2022/08/29 12:37:31;;;;;;;14.63;13.83;;;25.80;18.10;;;;;;5049642;28;20778;-48
2022/08/29 12:40:21;;;;;;;14.10;13.30;;;25.80;18.20;;;;;;5046019;28;20480;-48
2022/08/29 12:43:24;;;;;;;14.23;13.63;;;25.60;17.70;;;;;;5058876;28;20847;-47
2022/08/29 12:45:51;;;;;;;14.90;14.10;;;25.70;18.00;;;;;;5046265;28;20464;-49
2022/08/29 12:48:25;;;;;;;14.30;13.40;;;25.80;17.80;;;;;;5042532;28;20868;-48